Terminal Aerodrome Forecast
Issued by NWS

Home | Current Version | Previous Version | Text Only | Print | Product List | Glossary On
Versions: 1 2 3 4 5 6 7 8 9 10 11 12
000
FTUS46 KMTR 281100
TAFSJC
TAF
KSJC 281120Z 2812/2912 VRB04KT P6SM OVC015
     FM281700 30004KT P6SM FEW020
     FM282200 31013G19KT P6SM SKC
     FM290600 30004KT P6SM BKN020
     FM291000 32002KT P6SM OVC015=

USA.gov is the U.S. government's official web portal to all federal, state and local government web resources and services.